Time;durP1;ratioP1;P1;durP2;ratioP2;P2;SDS_P1;SDS_P2;PMS_P1;PMS_P2;Temp;Humidity;BMP_temperature;BMP_pressure;BME280_temperature;BME280_humidity;BME280_pressure;Samples;Min_cycle;Max_cycle;Signal;HPM_P1;HPM_P2
2022/06/06 00:02:28;;;;;;;;;;;;;;;12.42;78.54;97331.67;109748;1252;59748;-74
2022/06/06 00:04:58;;;;;;;;;;;;;;;12.37;78.06;97331.80;109816;1250;59749;-68
2022/06/06 00:07:27;;;;;;;;;;;;;;;12.32;78.08;97328.89;109916;1250;71597;-71
2022/06/06 00:09:57;;;;;;;;;;;;;;;12.28;78.20;97327.94;109953;1250;68813;-73
2022/06/06 00:12:27;;;;;;;;;;;;;;;12.26;78.27;97328.66;109884;1250;69486;-71
2022/06/06 00:14:58;;;;;;;;;;;;;;;12.27;78.17;97330.72;109720;1250;59739;-69
2022/06/06 00:17:27;;;;;;;;;;;;;;;12.27;78.17;97330.67;109895;1250;59690;-67
2022/06/06 00:19:58;;;;;;;;;;;;;;;12.26;77.61;97332.52;109793;1250;71543;-70
2022/06/06 00:22:29;;;;;;;;;;;;;;;12.23;77.07;97333.05;109961;1249;68800;-70
2022/06/06 00:24:59;;;;;;;;;;;;;;;12.16;77.32;97334.86;109923;1250;69398;-69
2022/06/06 00:27:29;;;;;;;;;;;;;;;12.07;77.05;97335.21;109731;1250;59680;-74
2022/06/06 00:29:59;;;;;;;;;;;;;;;11.97;77.13;97337.89;109860;1250;59686;-70
2022/06/06 00:35:20;;;;;;;;;;;;;;;11.80;79.54;97348.39;109952;1250;67634;-74
2022/06/06 00:37:50;;;;;;;;;;;;;;;11.73;80.00;97351.30;109974;1250;69415;-70
2022/06/06 00:40:21;;;;;;;;;;;;;;;11.69;80.89;97351.78;109966;1250;59738;-67
2022/06/06 00:42:53;;;;;;;;;;;;;;;11.65;81.51;97344.11;110357;1250;59715;-72
2022/06/06 00:45:25;;;;;;;;;;;;;;;11.60;82.09;97343.98;110008;1250;71648;-74
2022/06/06 00:47:58;;;;;;;;;;;;;;;11.55;82.19;97340.67;109698;1251;68590;-66
2022/06/06 00:50:33;;;;;;;;;;;;;;;11.51;81.94;97342.39;109921;1250;69309;-67
2022/06/06 00:53:04;;;;;;;;;;;;;;;11.47;82.58;97345.16;109934;1250;59772;-69
2022/06/06 00:55:36;;;;;;;;;;;;;;;11.42;82.86;97345.02;109949;1250;60111;-71
2022/06/06 00:58:10;;;;;;;;;;;;;;;11.38;82.49;97341.30;109959;1250;71460;-68
2022/06/06 01:00:43;;;;;;;;;;;;;;;11.32;83.09;97339.52;109931;1250;68131;-66
2022/06/06 01:03:15;;;;;;;;;;;;;;;11.27;82.74;97337.27;109921;1250;68659;-68
2022/06/06 01:05:47;;;;;;;;;;;;;;;11.23;82.60;97335.84;109724;1253;59775;-73
2022/06/06 01:08:20;;;;;;;;;;;;;;;11.20;82.15;97334.36;109913;1250;59637;-67
2022/06/06 01:10:50;;;;;;;;;;;;;;;11.18;81.98;97335.36;109957;1250;70747;-66
2022/06/06 01:13:24;;;;;;;;;;;;;;;11.16;82.75;97335.10;109754;1253;67935;-66
2022/06/06 01:15:56;;;;;;;;;;;;;;;11.17;83.28;97337.36;109981;1250;68518;-66
2022/06/06 01:18:26;;;;;;;;;;;;;;;11.16;83.20;97337.71;109859;1250;59745;-65
2022/06/06 01:21:14;;;;;;;;;;;;;;;11.17;82.88;97343.45;109885;1250;59701;-65
2022/06/06 01:24:02;;;;;;;;;;;;;;;11.18;83.37;97344.22;109926;1250;70340;-67
2022/06/06 01:26:39;;;;;;;;;;;;;;;11.18;81.82;97346.30;109857;1250;68609;-67
2022/06/06 01:29:28;;;;;;;;;;;;;;;11.17;79.68;97338.35;110069;1250;69458;-67
2022/06/06 01:32:00;;;;;;;;;;;;;;;11.15;79.83;97338.53;110323;1250;59621;-72
2022/06/06 01:34:36;;;;;;;;;;;;;;;11.12;81.16;97336.16;109891;1250;59709;-73
2022/06/06 01:37:24;;;;;;;;;;;;;;;11.09;81.88;97340.23;109664;1253;70913;-75
2022/06/06 01:39:55;;;;;;;;;;;;;;;11.08;83.06;97338.86;109910;1250;68593;-75
2022/06/06 01:42:29;;;;;;;;;;;;;;;11.07;80.80;97338.30;109911;1250;68740;-71
2022/06/06 01:45:07;;;;;;;;;;;;;;;11.04;79.68;97337.65;109897;1250;59752;-70
2022/06/06 01:47:42;;;;;;;;;;;;;;;10.97;80.67;97339.39;109920;1250;59832;-74
2022/06/06 01:50:13;;;;;;;;;;;;;;;10.90;80.40;97341.50;109947;1250;71583;-74
2022/06/06 01:52:55;;;;;;;;;;;;;;;10.84;80.33;97339.67;109771;1253;68497;-74
2022/06/06 01:55:25;;;;;;;;;;;;;;;10.79;82.68;97337.79;109939;1250;69386;-74
2022/06/06 01:57:57;;;;;;;;;;;;;;;10.77;83.27;97342.14;109681;1253;59769;-71
2022/06/06 02:00:29;;;;;;;;;;;;;;;10.74;83.82;97341.29;109937;1250;59720;-69
2022/06/06 02:03:01;;;;;;;;;;;;;;;10.73;84.25;97339.13;109889;1252;70747;-69
2022/06/06 02:05:30;;;;;;;;;;;;;;;10.70;83.69;97334.90;109949;1250;68595;-71
2022/06/06 02:08:01;;;;;;;;;;;;;;;10.69;83.01;97338.69;109723;1250;68797;-69
2022/06/06 02:10:31;;;;;;;;;;;;;;;10.69;84.55;97338.71;109933;1250;60095;-69
2022/06/06 02:13:01;;;;;;;;;;;;;;;10.67;83.82;97340.02;109981;1249;59682;-69
2022/06/06 02:15:32;;;;;;;;;;;;;;;10.65;84.60;97343.65;109844;1250;71545;-66
2022/06/06 02:18:02;;;;;;;;;;;;;;;10.64;84.26;97343.80;110260;1250;66820;-69
2022/06/06 02:20:32;;;;;;;;;;;;;;;10.62;84.25;97344.21;110009;1250;68688;-67
2022/06/06 02:23:02;;;;;;;;;;;;;;;10.61;84.59;97343.95;109900;1250;59691;-72
2022/06/06 02:25:32;;;;;;;;;;;;;;;10.61;84.56;97347.35;109913;1250;59602;-71
2022/06/06 02:28:02;;;;;;;;;;;;;;;10.59;84.19;97347.41;109727;1250;71566;-67
2022/06/06 02:30:33;;;;;;;;;;;;;;;10.58;83.68;97346.64;109931;1250;66634;-68
2022/06/06 02:33:02;;;;;;;;;;;;;;;10.57;83.67;97351.06;109898;1250;69410;-70
2022/06/06 02:35:33;;;;;;;;;;;;;;;10.56;83.21;97355.17;109902;1249;59710;-71
2022/06/06 02:38:03;;;;;;;;;;;;;;;10.55;82.88;97355.63;109727;1251;59726;-69
2022/06/06 02:40:32;;;;;;;;;;;;;;;10.55;84.04;97356.81;109783;1253;70804;-69
2022/06/06 02:43:01;;;;;;;;;;;;;;;10.53;84.65;97355.20;109790;1251;67074;-69
2022/06/06 02:45:30;;;;;;;;;;;;;;;10.51;84.13;97356.24;109663;1252;69266;-69
2022/06/06 02:48:09;;;;;;;;;;;;;;;10.47;84.35;97353.06;109687;1251;59716;-70
2022/06/06 02:50:39;;;;;;;;;;;;;;;10.44;84.40;97353.23;109731;1253;59700;-69
2022/06/06 02:53:09;;;;;;;;;;;;;;;10.43;84.55;97348.59;109833;1251;71548;-71
2022/06/06 02:55:38;;;;;;;;;;;;;;;10.42;84.56;97347.84;109825;1251;67590;-68
2022/06/06 02:58:07;;;;;;;;;;;;;;;10.42;84.72;97346.80;109753;1252;68671;-69
2022/06/06 03:00:42;;;;;;;;;;;;;;;10.42;84.54;97345.26;109813;1251;59736;-68
2022/06/06 03:03:12;;;;;;;;;;;;;;;10.43;84.59;97345.84;109848;1252;59622;-70
2022/06/06 03:05:41;;;;;;;;;;;;;;;10.44;83.83;97348.23;110173;1252;71585;-70
2022/06/06 03:08:17;;;;;;;;;;;;;;;10.48;84.57;97356.65;109923;1251;67804;-65
2022/06/06 03:10:58;;;;;;;;;;;;;;;10.51;84.02;97356.25;109808;1251;68623;-66
2022/06/06 03:13:54;;;;;;;;;;;;;;;10.54;82.74;97354.08;109810;1251;60053;-67
2022/06/06 03:23:03;;;;;;;;;;;;;;;10.69;82.13;97357.65;109425;1255;68585;-65
2022/06/06 03:25:43;;;;;;;;;;;;;;;10.76;83.20;97354.73;109685;1253;69244;-66
2022/06/06 03:28:25;;;;;;;;;;;;;;;10.82;82.25;97353.43;109713;1253;59643;-68
2022/06/06 03:31:07;;;;;;;;;;;;;;;10.88;83.88;97353.45;109765;1253;59750;-66
2022/06/06 03:33:43;;;;;;;;;;;;;;;10.93;84.02;97350.85;109784;1251;70590;-66
2022/06/06 03:36:15;;;;;;;;;;;;;;;10.97;84.34;97347.61;109868;1250;67737;-76
2022/06/06 03:38:48;;;;;;;;;;;;;;;11.02;83.90;97344.92;109845;1251;68602;-71
2022/06/06 03:41:40;;;;;;;;;;;;;;;11.08;83.35;97345.01;109835;1250;60149;-74
2022/06/06 03:44:27;;;;;;;;;;;;;;;11.15;83.03;97345.83;109859;1250;59764;-69
2022/06/06 03:47:17;;;;;;;;;;;;;;;11.23;82.31;97343.17;109814;1251;71810;-68
2022/06/06 03:49:51;;;;;;;;;;;;;;;11.30;81.68;97347.52;109818;1250;68716;-70
2022/06/06 03:52:32;;;;;;;;;;;;;;;11.39;82.07;97349.47;110090;1250;68761;-69
2022/06/06 03:55:21;;;;;;;;;;;;;;;11.47;81.59;97345.86;110088;1250;59740;-68
2022/06/06 03:57:53;;;;;;;;;;;;;;;11.56;81.00;97351.09;109805;1250;59634;-66
2022/06/06 04:00:23;;;;;;;;;;;;;;;11.64;80.78;97349.08;109851;1250;70778;-66
2022/06/06 04:02:55;;;;;;;;;;;;;;;11.76;81.01;97352.55;109914;1250;68408;-67
2022/06/06 04:05:24;;;;;;;;;;;;;;;11.87;80.71;97353.95;110010;1250;69244;-69
2022/06/06 04:07:52;;;;;;;;;;;;;;;11.98;80.05;97351.84;109859;1250;59758;-72
2022/06/06 04:10:28;;;;;;;;;;;;;;;12.10;79.25;97352.09;109906;1250;59679;-68
2022/06/06 04:13:06;;;;;;;;;;;;;;;12.22;78.93;97350.45;109871;1250;71364;-69
2022/06/06 04:15:51;;;;;;;;;;;;;;;12.35;77.97;97355.20;109926;1250;67875;-74
2022/06/06 04:18:26;;;;;;;;;;;;;;;12.49;78.12;97353.48;109917;1250;68910;-72
2022/06/06 04:21:13;;;;;;;;;;;;;;;12.62;78.14;97356.28;109763;1250;59736;-74
2022/06/06 04:23:45;;;;;;;;;;;;;;;12.77;78.14;97364.67;109887;1250;59713;-74
2022/06/06 04:26:20;;;;;;;;;;;;;;;12.89;77.96;97368.02;109829;1250;70789;-69
2022/06/06 04:29:04;;;;;;;;;;;;;;;13.01;78.40;97374.74;109698;1253;67962;-69
2022/06/06 04:31:32;;;;;;;;;;;;;;;13.17;78.30;97382.16;109899;1250;68834;-68
2022/06/06 04:34:10;;;;;;;;;;;;;;;13.32;77.79;97376.27;109892;1249;59757;-68
2022/06/06 04:36:48;;;;;;;;;;;;;;;13.48;77.46;97377.97;109875;1250;59779;-71
2022/06/06 04:39:35;;;;;;;;;;;;;;;13.67;76.71;97382.48;109981;1253;71590;-66
2022/06/06 04:42:09;;;;;;;;;;;;;;;13.87;75.98;97389.39;109842;1252;67802;-68
2022/06/06 04:44:44;;;;;;;;;;;;;;;14.04;75.32;97397.87;109804;1252;69584;-74
2022/06/06 04:47:28;;;;;;;;;;;;;;;14.17;75.14;97395.48;109642;1253;59673;-73
2022/06/06 04:49:58;;;;;;;;;;;;;;;14.33;74.64;97392.31;109753;1251;59688;-74
2022/06/06 04:52:29;;;;;;;;;;;;;;;14.54;73.39;97394.18;109717;1252;72828;-68
2022/06/06 04:54:59;;;;;;;;;;;;;;;14.73;72.29;97391.77;109789;1251;68597;-69
2022/06/06 04:57:29;;;;;;;;;;;;;;;14.93;73.13;97394.02;109769;1252;69695;-67
2022/06/06 04:59:58;;;;;;;;;;;;;;;15.11;73.01;97398.88;109761;1252;59747;-70
2022/06/06 05:02:27;;;;;;;;;;;;;;;15.25;72.08;97404.73;109791;1252;59697;-73
2022/06/06 05:04:56;;;;;;;;;;;;;;;15.46;71.91;97414.08;109639;1253;70965;-78
2022/06/06 05:07:31;;;;;;;;;;;;;;;15.75;71.41;97423.67;109699;1253;68616;-72
2022/06/06 05:10:02;;;;;;;;;;;;;;;16.08;69.01;97424.64;109745;1253;69303;-75
2022/06/06 05:12:47;;;;;;;;;;;;;;;16.54;67.82;97427.23;109939;1251;59771;-76
2022/06/06 05:15:21;;;;;;;;;;;;;;;17.20;66.79;97431.33;109842;1251;59745;-70
2022/06/06 05:17:50;;;;;;;;;;;;;;;17.80;62.33;97437.33;109659;1253;71513;-66
2022/06/06 05:20:37;;;;;;;;;;;;;;;18.35;61.47;97439.07;109734;1253;68569;-72
2022/06/06 05:23:23;;;;;;;;;;;;;;;18.89;61.32;97437.46;109692;1253;69263;-75
2022/06/06 05:25:52;;;;;;;;;;;;;;;19.27;58.85;97439.05;109732;1253;59767;-71
2022/06/06 05:28:37;;;;;;;;;;;;;;;19.51;57.99;97441.60;109703;1251;59711;-70
2022/06/06 05:31:09;;;;;;;;;;;;;;;19.62;57.57;97442.31;109829;1253;71369;-76
2022/06/06 05:33:42;;;;;;;;;;;;;;;19.69;56.60;97437.73;109783;1253;68559;-76
2022/06/06 05:36:28;;;;;;;;;;;;;;;19.62;56.10;97438.46;109859;1253;68650;-69
2022/06/06 05:39:05;;;;;;;;;;;;;;;19.61;56.25;97443.52;109852;1250;59723;-75
2022/06/06 05:41:50;;;;;;;;;;;;;;;19.59;55.37;97446.50;109725;1253;59749;-72
2022/06/06 05:44:34;;;;;;;;;;;;;;;19.54;55.89;97446.49;109908;1250;71587;-76
2022/06/06 05:47:16;;;;;;;;;;;;;;;19.55;55.13;97448.22;109765;1251;68117;-76
2022/06/06 05:49:48;;;;;;;;;;;;;;;19.63;55.66;97451.91;109865;1250;68829;-75
2022/06/06 05:52:19;;;;;;;;;;;;;;;19.58;54.45;97454.27;109919;1250;59702;-70
2022/06/06 05:55:06;;;;;;;;;;;;;;;19.58;55.03;97456.54;110011;1250;59744;-76
2022/06/06 05:57:38;;;;;;;;;;;;;;;19.64;55.01;97463.69;110524;1250;71567;-71
2022/06/06 06:00:18;;;;;;;;;;;;;;;19.59;54.84;97464.55;110066;1250;68616;-75
2022/06/06 06:02:50;;;;;;;;;;;;;;;19.64;55.05;97465.43;109817;1250;68455;-73
2022/06/06 06:05:33;;;;;;;;;;;;;;;19.64;54.49;97466.70;109883;1251;59713;-70
2022/06/06 06:08:05;;;;;;;;;;;;;;;19.78;55.39;97469.21;109889;1250;59664;-75
2022/06/06 06:10:47;;;;;;;;;;;;;;;19.91;55.55;97472.90;109814;1253;70735;-75
2022/06/06 06:13:34;;;;;;;;;;;;;;;20.09;55.40;97473.59;109860;1250;67840;-72
2022/06/06 06:16:04;;;;;;;;;;;;;;;20.29;54.47;97473.87;109852;1251;69589;-75
2022/06/06 06:18:36;;;;;;;;;;;;;;;20.59;54.34;97473.35;109831;1250;59690;-75
2022/06/06 06:21:08;;;;;;;;;;;;;;;20.88;53.50;97465.39;109741;1253;59631;-72
2022/06/06 06:23:40;;;;;;;;;;;;;;;21.21;53.11;97467.80;109719;1253;70774;-72
2022/06/06 06:26:11;;;;;;;;;;;;;;;21.64;52.05;97465.09;109812;1253;68768;-72
2022/06/06 06:28:41;;;;;;;;;;;;;;;22.09;50.80;97472.02;109356;1250;691554;-74
2022/06/06 06:31:17;;;;;;;;;;;;;;;22.44;47.50;97468.38;109733;1253;59769;-76
2022/06/06 06:33:55;;;;;;;;;;;;;;;22.76;47.54;97473.75;109690;1253;59759;-75
2022/06/06 06:36:24;;;;;;;;;;;;;;;23.14;47.25;97473.70;109898;1251;71212;-73
2022/06/06 06:38:53;;;;;;;;;;;;;;;23.28;46.02;97477.52;109905;1253;67612;-76
2022/06/06 06:41:30;;;;;;;;;;;;;;;23.65;45.98;97480.06;109723;1253;69475;-74
2022/06/06 06:44:05;;;;;;;;;;;;;;;23.88;44.28;97477.84;110317;1250;59770;-74
2022/06/06 06:46:38;;;;;;;;;;;;;;;23.98;42.95;97474.45;110028;1250;59760;-76
2022/06/06 06:49:26;;;;;;;;;;;;;;;24.11;43.69;97467.84;109919;1250;70619;-76
2022/06/06 06:52:09;;;;;;;;;;;;;;;24.37;43.37;97470.70;109835;1250;67667;-75
2022/06/06 06:54:46;;;;;;;;;;;;;;;24.41;41.77;97467.71;109932;1250;69467;-73
2022/06/06 06:57:53;;;;;;;;;;;;;;;24.70;42.13;97470.03;109890;1251;59719;-75
2022/06/06 07:00:23;;;;;;;;;;;;;;;24.63;42.04;97472.19;109424;1256;59704;-74
2022/06/06 07:08:42;;;;;;;;;;;;;;;24.58;40.73;97478.58;109382;1256;68949;-72
2022/06/06 07:11:23;;;;;;;;;;;;;;;24.65;40.83;97481.16;109389;1257;59742;-74
2022/06/06 07:14:12;;;;;;;;;;;;;;;24.94;40.97;97481.27;109358;1258;59736;-76
2022/06/06 07:16:41;;;;;;;;;;;;;;;25.30;39.81;97478.92;109397;1256;71570;-77
2022/06/06 07:19:12;;;;;;;;;;;;;;;25.23;39.15;97478.49;109420;1256;69370;-69
2022/06/06 07:21:41;;;;;;;;;;;;;;;25.07;39.23;97480.27;109402;1257;68778;-75
2022/06/06 07:24:12;;;;;;;;;;;;;;;25.08;38.90;97482.36;109302;1257;59948;-76
2022/06/06 07:26:42;;;;;;;;;;;;;;;25.17;39.23;97488.86;109419;1256;59748;-76
2022/06/06 07:29:14;;;;;;;;;;;;;;;24.91;38.70;97482.98;109365;1256;71359;-77
2022/06/06 07:32:01;;;;;;;;;;;;;;;24.94;39.39;97487.39;109723;1254;68704;-76
2022/06/06 07:34:48;;;;;;;;;;;;;;;25.45;39.38;97476.59;110332;1251;69993;-77
2022/06/06 07:37:36;;;;;;;;;;;;;;;25.73;38.54;97485.32;109902;1250;59681;-76
2022/06/06 07:40:07;;;;;;;;;;;;;;;25.43;37.64;97485.86;109927;1250;59686;-73
2022/06/06 07:42:51;;;;;;;;;;;;;;;25.09;38.63;97492.23;109928;1250;70767;-71
2022/06/06 07:45:29;;;;;;;;;;;;;;;24.90;39.82;97492.77;109831;1251;68641;-74
2022/06/06 07:47:58;;;;;;;;;;;;;;;25.31;39.08;97487.39;109707;1252;69484;-74
2022/06/06 07:50:35;;;;;;;;;;;;;;;25.61;38.66;97487.44;109708;1251;59682;-68
2022/06/06 07:53:04;;;;;;;;;;;;;;;25.86;37.23;97484.48;109927;1250;59742;-72
2022/06/06 07:55:38;;;;;;;;;;;;;;;26.32;36.47;97491.13;109906;1251;71729;-69
2022/06/06 07:58:13;;;;;;;;;;;;;;;26.51;34.49;97493.95;109939;1250;67923;-71
2022/06/06 08:00:45;;;;;;;;;;;;;;;26.55;34.72;97493.75;109923;1250;68856;-70
2022/06/06 08:03:19;;;;;;;;;;;;;;;26.69;34.67;97491.21;109917;1251;59800;-74
2022/06/06 08:06:08;;;;;;;;;;;;;;;26.98;35.09;97491.46;109879;1251;59758;-70
2022/06/06 08:08:45;;;;;;;;;;;;;;;27.35;34.70;97491.87;109721;1253;70436;-70
2022/06/06 08:11:20;;;;;;;;;;;;;;;27.84;33.85;97487.36;109917;1250;69275;-70
2022/06/06 08:13:57;;;;;;;;;;;;;;;28.09;32.99;97486.39;109765;1251;69686;-72
2022/06/06 08:16:32;;;;;;;;;;;;;;;28.26;33.00;97481.23;109791;1251;59748;-75
2022/06/06 08:19:07;;;;;;;;;;;;;;;28.20;32.74;97482.53;109731;1253;59644;-73
2022/06/06 08:21:39;;;;;;;;;;;;;;;27.83;33.09;97486.08;109944;1251;72136;-75
2022/06/06 08:24:29;;;;;;;;;;;;;;;27.77;32.98;97487.84;109941;1251;68617;-70
2022/06/06 08:27:19;;;;;;;;;;;;;;;27.74;32.37;97490.70;109893;1251;68695;-67
2022/06/06 08:29:49;;;;;;;;;;;;;;;27.72;32.45;97478.78;109925;1251;59706;-75
2022/06/06 08:32:18;;;;;;;;;;;;;;;27.67;32.39;97478.92;109669;1253;59704;-72
2022/06/06 08:34:48;;;;;;;;;;;;;;;27.64;32.22;97482.43;110166;1251;70092;-75
2022/06/06 08:37:26;;;;;;;;;;;;;;;27.59;32.21;97481.75;109851;1254;67749;-71
2022/06/06 08:40:06;;;;;;;;;;;;;;;27.67;32.97;97483.88;109886;1251;69337;-67
2022/06/06 08:42:47;;;;;;;;;;;;;;;27.36;33.80;97488.09;109874;1251;59750;-74
2022/06/06 08:45:16;;;;;;;;;;;;;;;27.44;33.43;97483.35;109909;1251;59744;-68
2022/06/06 08:48:02;;;;;;;;;;;;;;;27.54;33.36;97481.50;109737;1251;71358;-69
2022/06/06 08:50:46;;;;;;;;;;;;;;;27.30;33.65;97481.78;109667;1254;68636;-72
2022/06/06 08:53:27;;;;;;;;;;;;;;;26.87;33.42;97486.35;109856;1251;69428;-69
2022/06/06 08:56:20;;;;;;;;;;;;;;;26.38;34.49;97484.57;109939;1253;60398;-71
2022/06/06 08:59:07;;;;;;;;;;;;;;;26.09;35.47;97484.23;109976;1251;59726;-70
2022/06/06 09:01:55;;;;;;;;;;;;;;;25.86;35.53;97487.72;109898;1251;71561;-69
2022/06/06 09:04:42;;;;;;;;;;;;;;;25.48;36.78;97485.61;109892;1251;68837;-73
2022/06/06 09:07:32;;;;;;;;;;;;;;;25.34;37.41;97482.63;109754;1251;69449;-73
2022/06/06 09:10:13;;;;;;;;;;;;;;;25.24;37.55;97479.20;109876;1251;59694;-70
2022/06/06 09:13:00;;;;;;;;;;;;;;;25.25;38.23;97476.36;109899;1251;59687;-72
2022/06/06 09:15:44;;;;;;;;;;;;;;;25.58;36.95;97480.77;109922;1251;72257;-68
2022/06/06 09:18:26;;;;;;;;;;;;;;;25.56;37.07;97476.73;109676;1251;68644;-74
2022/06/06 09:21:04;;;;;;;;;;;;;;;25.47;37.67;97476.89;109765;1251;68701;-71
2022/06/06 09:23:39;;;;;;;;;;;;;;;25.65;37.06;97474.10;109848;1250;59678;-72
2022/06/06 09:26:27;;;;;;;;;;;;;;;25.60;37.81;97476.90;109792;1251;59775;-74
2022/06/06 09:29:14;;;;;;;;;;;;;;;26.20;37.20;97475.91;109714;1254;70797;-73
2022/06/06 09:32:01;;;;;;;;;;;;;;;26.20;36.48;97476.88;109899;1251;69303;-68
2022/06/06 09:34:32;;;;;;;;;;;;;;;25.99;37.11;97473.66;109907;1251;69441;-74
2022/06/06 09:37:08;;;;;;;;;;;;;;;26.31;37.05;97479.59;109924;1250;59748;-73
2022/06/06 09:39:57;;;;;;;;;;;;;;;26.72;35.93;97479.66;109645;1253;59795;-74
2022/06/06 09:42:37;;;;;;;;;;;;;;;27.30;36.24;97476.66;109920;1251;71526;-74
2022/06/06 09:45:25;;;;;;;;;;;;;;;27.81;34.34;97473.34;109802;1252;67926;-72
2022/06/06 09:47:56;;;;;;;;;;;;;;;27.90;33.77;97470.77;110363;1251;68713;-69
2022/06/06 09:50:45;;;;;;;;;;;;;;;28.14;33.49;97467.34;109991;1251;59757;-71
2022/06/06 09:53:34;;;;;;;;;;;;;;;27.84;32.59;97461.55;109661;1251;59689;-72
2022/06/06 09:59:32;;;;;;;;;;;;;;;28.48;33.06;97458.48;109924;1251;69236;-74
2022/06/06 10:02:24;;;;;;;;;;;;;;;28.20;34.96;97455.74;109903;1251;69690;-69
2022/06/06 10:05:11;;;;;;;;;;;;;;;28.00;33.54;97453.62;109757;1254;59830;-72
2022/06/06 10:07:46;;;;;;;;;;;;;;;27.31;33.88;97452.34;109756;1251;59760;-72
2022/06/06 10:10:44;;;;;;;;;;;;;;;26.63;34.05;97454.89;109764;1249;70758;-72
2022/06/06 10:13:14;;;;;;;;;;;;;;;26.13;34.24;97455.27;109360;1251;67777;-71
2022/06/06 10:15:56;;;;;;;;;;;;;;;25.83;34.83;97453.49;109811;1251;68290;-74
2022/06/06 10:18:37;;;;;;;;;;;;;;;25.94;34.92;97455.01;109908;1251;59680;-75
2022/06/06 10:21:24;;;;;;;;;;;;;;;26.11;34.74;97462.82;109869;1251;59687;-74
2022/06/06 10:24:16;;;;;;;;;;;;;;;26.41;34.32;97459.91;109842;1250;69834;-73
2022/06/06 10:26:58;;;;;;;;;;;;;;;26.84;34.24;97456.00;109628;1253;66743;-72
2022/06/06 10:29:26;;;;;;;;;;;;;;;27.19;33.63;97454.81;109763;1253;68733;-72
2022/06/06 10:32:17;;;;;;;;;;;;;;;27.39;33.86;97449.11;109818;1250;59775;-71
2022/06/06 10:34:46;;;;;;;;;;;;;;;27.34;32.69;97452.39;109824;1250;59670;-73
2022/06/06 10:37:33;;;;;;;;;;;;;;;27.29;33.08;97447.56;109894;1250;72237;-72
2022/06/06 10:40:11;;;;;;;;;;;;;;;27.27;33.32;97446.52;109823;1250;68616;-73
2022/06/06 10:43:00;;;;;;;;;;;;;;;27.06;33.97;97443.33;109828;1250;68773;-69
2022/06/06 10:45:46;;;;;;;;;;;;;;;26.94;34.33;97448.07;109903;1251;59752;-70
2022/06/06 10:48:21;;;;;;;;;;;;;;;26.98;34.06;97440.34;109876;1250;59684;-74
2022/06/06 10:54:16;;;;;;;;;;;;;;;26.86;33.46;97439.27;109812;1250;68717;-69
2022/06/06 10:56:52;;;;;;;;;;;;;;;26.82;34.65;97436.41;109839;1251;69423;-73
2022/06/06 10:59:39;;;;;;;;;;;;;;;27.09;34.26;97434.66;110499;1250;59684;-73
2022/06/06 11:02:26;;;;;;;;;;;;;;;27.32;34.15;97430.70;109782;1253;59810;-73
2022/06/06 11:05:13;;;;;;;;;;;;;;;27.66;33.00;97424.16;109781;1251;71534;-70
2022/06/06 11:07:44;;;;;;;;;;;;;;;27.78;32.58;97424.90;109751;1253;68417;-73
2022/06/06 11:10:31;;;;;;;;;;;;;;;27.94;32.24;97420.29;109642;1254;69978;-70
2022/06/06 11:13:02;;;;;;;;;;;;;;;28.19;32.08;97425.61;109862;1251;59801;-65
2022/06/06 11:15:37;;;;;;;;;;;;;;;27.94;30.97;97422.02;109796;1251;59749;-66
2022/06/06 11:18:25;;;;;;;;;;;;;;;27.81;31.46;97418.52;109650;1253;71662;-66
2022/06/06 11:21:05;;;;;;;;;;;;;;;27.77;31.64;97413.60;109887;1251;67570;-69
2022/06/06 11:23:42;;;;;;;;;;;;;;;27.60;31.76;97412.60;109670;1251;68667;-66
2022/06/06 11:26:30;;;;;;;;;;;;;;;27.59;31.78;97414.38;109832;1251;59790;-65
2022/06/06 11:29:17;;;;;;;;;;;;;;;27.72;31.99;97413.63;109877;1251;60101;-67
2022/06/06 11:31:50;;;;;;;;;;;;;;;28.05;31.86;97414.23;109728;1251;72182;-68
2022/06/06 11:34:40;;;;;;;;;;;;;;;28.32;31.53;97416.88;109927;1250;67831;-70
2022/06/06 11:37:39;;;;;;;;;;;;;;;28.20;30.35;97416.31;109883;1251;69231;-72
2022/06/06 11:40:26;;;;;;;;;;;;;;;27.83;31.33;97410.72;109831;1251;59706;-66
2022/06/06 11:42:55;;;;;;;;;;;;;;;28.05;32.80;97409.02;109927;1251;59634;-65
2022/06/06 11:45:30;;;;;;;;;;;;;;;28.30;31.24;97412.50;109772;1251;70522;-66
2022/06/06 11:48:07;;;;;;;;;;;;;;;28.20;30.17;97414.69;109888;1251;69189;-65
2022/06/06 11:50:48;;;;;;;;;;;;;;;27.95;30.89;97412.69;109745;1251;68632;-69
2022/06/06 11:53:41;;;;;;;;;;;;;;;27.74;30.68;97407.86;109798;1251;59729;-72
2022/06/06 11:56:22;;;;;;;;;;;;;;;27.74;30.96;97406.29;109960;1251;59804;-74
2022/06/06 11:59:03;;;;;;;;;;;;;;;27.56;31.08;97407.09;109908;1251;71569;-72
2022/06/06 12:01:38;;;;;;;;;;;;;;;27.46;31.15;97403.67;109790;1251;68395;-69
2022/06/06 12:04:33;;;;;;;;;;;;;;;27.85;31.58;97400.83;109762;1251;68640;-73
2022/06/06 12:07:23;;;;;;;;;;;;;;;28.05;31.18;97400.23;109510;1251;59770;-71
2022/06/06 12:09:52;;;;;;;;;;;;;;;27.90;31.61;97398.98;110197;1251;59620;-73
2022/06/06 12:12:39;;;;;;;;;;;;;;;27.74;31.65;97401.95;110007;1251;70956;-75
2022/06/06 12:15:08;;;;;;;;;;;;;;;27.48;32.30;97397.13;109774;1253;67724;-71
2022/06/06 12:17:43;;;;;;;;;;;;;;;27.36;32.09;97392.27;109708;1251;69547;-72
2022/06/06 12:20:14;;;;;;;;;;;;;;;27.14;32.81;97393.13;109884;1251;59779;-69
2022/06/06 12:22:53;;;;;;;;;;;;;;;27.00;33.39;97392.83;109683;1251;59789;-70
2022/06/06 12:25:34;;;;;;;;;;;;;;;27.00;33.97;97391.67;109854;1251;70633;-69
2022/06/06 12:28:22;;;;;;;;;;;;;;;27.01;35.00;97392.58;109800;1251;67759;-71
2022/06/06 12:31:02;;;;;;;;;;;;;;;27.00;33.88;97394.04;109708;1251;70002;-71
2022/06/06 12:33:44;;;;;;;;;;;;;;;27.27;33.23;97392.75;109876;1251;59640;-71
2022/06/06 12:36:23;;;;;;;;;;;;;;;27.69;32.66;97395.97;109823;1250;59716;-71
2022/06/06 12:39:11;;;;;;;;;;;;;;;28.17;32.56;97394.66;109885;1251;71429;-72
2022/06/06 12:41:58;;;;;;;;;;;;;;;28.11;32.16;97395.60;109801;1251;67856;-72
2022/06/06 12:44:26;;;;;;;;;;;;;;;28.12;32.40;97393.61;109921;1251;68656;-72
2022/06/06 12:46:55;;;;;;;;;;;;;;;27.85;32.64;97394.72;109909;1251;59720;-71
2022/06/06 12:49:33;;;;;;;;;;;;;;;27.60;33.38;97392.24;109835;1251;59691;-72
2022/06/06 12:52:20;;;;;;;;;;;;;;;27.25;33.99;97395.73;109920;1251;71684;-66
2022/06/06 12:57:48;;;;;;;;;;;;;;;27.05;35.06;97395.36;109872;1251;70183;-71
2022/06/06 13:01:37;;;;;;;;;;;;;;;27.05;34.60;97398.45;109760;1251;59782;-74
2022/06/06 13:03:18;;;;;;;;;;;;;;;27.02;34.67;97392.98;109740;1251;59725;-74
2022/06/06 13:06:19;;;;;;;;;;;;;;;26.87;34.34;97390.19;109747;1251;71577;-72
2022/06/06 13:09:03;;;;;;;;;;;;;;;26.68;34.90;97389.46;109527;1251;67797;-72
2022/06/06 13:11:48;;;;;;;;;;;;;;;26.63;34.55;97389.20;109609;1251;69423;-72
2022/06/06 13:14:17;;;;;;;;;;;;;;;26.67;34.84;97385.14;109852;1251;59823;-69
2022/06/06 13:16:51;;;;;;;;;;;;;;;26.73;34.60;97383.38;109839;1251;59708;-69
2022/06/06 13:19:23;;;;;;;;;;;;;;;26.74;34.37;97382.22;110001;1251;71564;-71
2022/06/06 13:22:10;;;;;;;;;;;;;;;26.82;34.40;97377.34;110449;1250;67603;-74
2022/06/06 13:25:02;;;;;;;;;;;;;;;26.90;35.31;97374.48;109879;1251;69452;-69
2022/06/06 13:27:41;;;;;;;;;;;;;;;27.10;34.64;97372.15;109910;1251;60521;-67
2022/06/06 13:30:18;;;;;;;;;;;;;;;27.30;33.53;97367.84;109753;1251;60750;-72
2022/06/06 13:33:26;;;;;;;;;;;;;;;27.46;33.73;97366.51;109836;1251;72358;-67
2022/06/06 13:36:15;;;;;;;;;;;;;;;27.61;33.32;97368.64;109862;1251;68086;-67
2022/06/06 13:39:05;;;;;;;;;;;;;;;27.55;32.56;97367.87;109892;1249;69510;-69
2022/06/06 13:41:42;;;;;;;;;;;;;;;27.53;33.07;97364.63;109582;1251;60609;-67
2022/06/06 13:44:24;;;;;;;;;;;;;;;27.36;33.27;97367.20;109927;1249;60510;-71
2022/06/06 13:47:01;;;;;;;;;;;;;;;27.22;32.76;97369.17;109858;1250;72373;-69
2022/06/06 13:49:31;;;;;;;;;;;;;;;26.98;33.58;97369.15;109842;1251;69237;-67
2022/06/06 13:52:00;;;;;;;;;;;;;;;26.90;33.95;97367.39;109896;1249;69487;-70
2022/06/06 13:54:29;;;;;;;;;;;;;;;26.83;33.96;97369.17;109827;1250;60524;-66